TimeMDT,TemperatureF,Dew PointF,Humidity,Sea Level PressureIn,VisibilityMPH,Wind Direction,Wind SpeedMPH,Gust SpeedMPH,PrecipitationIn,Events,Conditions,WindDirDegrees,DateUTC
12:53 AM,36.0,24.1,62,30.28,10.0,Calm,Calm,-,N/A,,Clear,0,2011-10-19 06:53:00
1:53 AM,32.0,21.9,66,30.28,10.0,South,3.5,-,N/A,,Clear,190,2011-10-19 07:53:00
2:53 AM,30.9,21.9,69,30.26,10.0,East,3.5,-,N/A,,Clear,90,2011-10-19 08:53:00
3:53 AM,30.0,21.0,69,30.25,10.0,Calm,Calm,-,N/A,,Clear,0,2011-10-19 09:53:00
4:53 AM,28.9,21.0,72,30.25,10.0,Calm,Calm,-,N/A,,Clear,0,2011-10-19 10:53:00
5:53 AM,28.0,19.9,72,30.26,10.0,East,5.8,-,N/A,,Clear,100,2011-10-19 11:53:00
6:53 AM,27.0,19.9,75,30.27,10.0,SSE,5.8,-,N/A,,Clear,150,2011-10-19 12:53:00
7:53 AM,28.9,21.0,72,30.26,10.0,SSE,4.6,-,N/A,,Clear,160,2011-10-19 13:53:00
10:53 AM,46.9,23.0,39,30.18,10.0,Calm,Calm,-,N/A,,Clear,0,2011-10-19 16:53:00
11:53 AM,53.1,23.0,31,30.13,10.0,Calm,Calm,-,N/A,,Clear,0,2011-10-19 17:53:00
12:53 PM,57.0,21.9,26,30.09,10.0,Calm,Calm,-,N/A,,Clear,0,2011-10-19 18:53:00
1:53 PM,61.0,16.0,17,30.02,10.0,Calm,Calm,-,N/A,,Clear,0,2011-10-19 19:53:00
2:53 PM,64.0,16.0,16,29.97,10.0,Calm,Calm,-,N/A,,Clear,0,2011-10-19 20:53:00
3:53 PM,66.0,14.0,13,29.96,10.0,West,5.8,-,N/A,,Clear,270,2011-10-19 21:53:00
4:53 PM,66.9,19.0,16,29.94,10.0,West,13.8,19.6,N/A,,Clear,280,2011-10-19 22:53:00
5:53 PM,64.0,19.0,18,29.95,10.0,West,15.0,-,N/A,,Clear,280,2011-10-19 23:53:00
6:53 PM,59.0,19.9,22,29.99,10.0,Calm,Calm,-,N/A,,Clear,0,2011-10-20 00:53:00
7:53 PM,48.9,19.9,32,30.02,10.0,South,9.2,-,N/A,,Clear,170,2011-10-20 01:53:00
8:53 PM,46.9,21.9,37,30.01,10.0,East,8.1,-,N/A,,Clear,80,2011-10-20 02:53:00
9:53 PM,45.0,21.9,40,30.01,10.0,East,4.6,-,N/A,,Clear,100,2011-10-20 03:53:00
10:53 PM,42.1,21.9,45,30.03,10.0,Calm,Calm,-,N/A,,Clear,0,2011-10-20 04:53:00
11:53 PM,37.0,21.0,52,30.04,10.0,SSE,4.6,-,N/A,,Clear,150,2011-10-20 05:53:00